createdAt,value
2022-11-25T00:01:29.491Z,43.28
2022-11-25T00:03:57.669Z,44.55
2022-11-25T00:06:26.785Z,44.05
2022-11-25T00:09:01.701Z,47.05
2022-11-25T00:11:28.746Z,44.92
2022-11-25T00:13:56.616Z,46.30
2022-11-25T00:16:24.573Z,47.22
2022-11-25T00:18:52.971Z,58.03
2022-11-25T00:21:23.180Z,48.40
2022-11-25T00:23:58.373Z,47.35
2022-11-25T00:26:26.525Z,58.50
2022-11-25T00:28:53.508Z,49.35
2022-11-25T00:31:22.982Z,47.38
2022-11-25T00:33:50.402Z,47.13
2022-11-25T00:36:22.662Z,51.35
2022-11-25T00:38:56.744Z,51.67
2022-11-25T00:41:42.718Z,54.05
2022-11-25T00:44:29.923Z,51.25
2022-11-25T00:46:56.411Z,49.88
2022-11-25T00:49:23.003Z,52.92
2022-11-25T00:51:49.483Z,52.58
2022-11-25T00:54:16.085Z,58.95
2022-11-25T00:56:42.584Z,50.72
2022-11-25T00:59:09.589Z,54.80
2022-11-25T01:01:36.542Z,61.83
2022-11-25T01:04:04.071Z,63.25
2022-11-25T01:06:30.560Z,62.45
2022-11-25T01:08:57.001Z,62.70
2022-11-25T01:11:24.294Z,57.95
2022-11-25T01:13:52.236Z,64.75
2022-11-25T01:16:21.234Z,65.90
2022-11-25T01:18:48.633Z,60.47
2022-11-25T01:21:23.728Z,59.58
2022-11-25T01:23:51.061Z,61.72
2022-11-25T01:26:20.139Z,58.45
2022-11-25T01:28:47.072Z,65.45
2022-11-25T01:31:15.346Z,62.08
2022-11-25T01:33:42.144Z,61.58
2022-11-25T01:36:11.565Z,58.63
2022-11-25T01:38:38.615Z,63.88
2022-11-25T01:41:06.649Z,60.08
2022-11-25T01:43:33.415Z,67.50
2022-11-25T01:46:05.983Z,70.75
2022-11-25T01:48:46.815Z,68.15
2022-11-25T01:51:38.521Z,66.67
2022-11-25T01:54:08.741Z,71.03
2022-11-25T01:56:42.088Z,73.07
2022-11-25T01:59:08.674Z,72.40
2022-11-25T02:01:35.235Z,88.30
2022-11-25T02:04:02.309Z,79.38
2022-11-25T02:07:25.543Z,75.43
2022-11-25T02:09:52.944Z,82.20
2022-11-25T02:12:20.593Z,84.57
2022-11-25T02:14:50.718Z,85.10
2022-11-25T02:17:17.534Z,90.38
2022-11-25T02:20:04.556Z,85.82
2022-11-25T02:22:40.615Z,91.53
2022-11-25T02:25:32.679Z,78.35
2022-11-25T02:28:05.987Z,89.50
2022-11-25T02:30:33.479Z,85.43
2022-11-25T02:33:00.776Z,81.32
2022-11-25T02:35:36.740Z,86.88
2022-11-25T02:38:05.855Z,78.85
2022-11-25T02:40:34.580Z,82.75
2022-11-25T02:43:01.101Z,92.25
2022-11-25T02:45:45.172Z,86.55
2022-11-25T02:48:11.654Z,83.45
2022-11-25T02:50:38.104Z,91.05
2022-11-25T02:53:04.811Z,91.88
2022-11-25T02:55:31.260Z,88.88
2022-11-25T02:57:57.714Z,81.85
2022-11-25T03:00:24.565Z,84.80
2022-11-25T03:02:53.612Z,85.43
2022-11-25T03:05:21.783Z,79.15
2022-11-25T03:07:48.433Z,84.40
2022-11-25T03:10:14.963Z,78.88
2022-11-25T03:12:41.379Z,77.57
2022-11-25T03:15:08.282Z,70.10
2022-11-25T03:17:34.737Z,81.55
2022-11-25T03:20:01.146Z,68.05
2022-11-25T03:22:27.730Z,70.90
2022-11-25T03:24:54.151Z,73.68
2022-11-25T03:27:20.758Z,77.88
2022-11-25T03:29:47.292Z,61.95
2022-11-25T03:32:13.768Z,62.72
2022-11-25T03:34:40.550Z,61.47
2022-11-25T03:37:07.179Z,58.85
2022-11-25T03:39:33.653Z,63.28
2022-11-25T03:42:00.086Z,62.65
2022-11-25T03:44:26.517Z,63.97
2022-11-25T03:46:53.117Z,54.83
2022-11-25T03:49:21.691Z,61.55
2022-11-25T03:51:49.078Z,62.05
2022-11-25T03:54:15.515Z,62.22
2022-11-25T03:56:42.110Z,55.10
2022-11-25T03:59:08.504Z,59.67
2022-11-25T04:01:35.176Z,58.50
2022-11-25T04:04:02.526Z,55.53
2022-11-25T04:06:29.319Z,50.28
2022-11-25T04:08:55.816Z,58.35
2022-11-25T04:11:22.235Z,54.60
2022-11-25T04:13:48.654Z,57.22
2022-11-25T04:16:26.338Z,50.28
2022-11-25T04:18:52.841Z,51.47
2022-11-25T04:21:19.420Z,57.17
2022-11-25T04:23:45.844Z,49.95
2022-11-25T04:26:12.353Z,47.88
2022-11-25T04:28:38.862Z,49.40
2022-11-25T04:31:09.312Z,46.47
2022-11-25T04:33:35.765Z,43.38
2022-11-25T04:36:02.181Z,46.85
2022-11-25T04:38:29.074Z,48.80
2022-11-25T04:40:55.509Z,49.15
2022-11-25T04:43:21.933Z,48.35
2022-11-25T04:46:13.056Z,50.28
2022-11-25T04:48:35.259Z,44.58
2022-11-25T04:51:01.793Z,52.53
2022-11-25T04:53:28.206Z,50.28
2022-11-25T04:55:54.635Z,46.70
2022-11-25T04:58:41.028Z,51.78
2022-11-25T05:01:07.573Z,50.88
2022-11-25T05:03:34.022Z,48.70
2022-11-25T05:06:05.086Z,50.03
2022-11-25T05:08:32.032Z,52.50
2022-11-25T05:10:59.337Z,49.30
2022-11-25T05:13:26.090Z,48.90
2022-11-25T05:15:52.510Z,48.58
2022-11-25T05:18:18.970Z,48.90
2022-11-25T05:20:45.618Z,48.20
2022-11-25T05:23:12.038Z,51.65
2022-11-25T05:25:38.557Z,64.15
2022-11-25T05:28:05.243Z,52.05
2022-11-25T05:30:31.736Z,51.35
2022-11-25T05:32:58.240Z,49.75
2022-11-25T05:35:24.788Z,47.17
2022-11-25T05:37:51.257Z,50.72
2022-11-25T05:40:17.826Z,49.50
2022-11-25T05:42:44.291Z,50.63
2022-11-25T05:45:11.191Z,56.47
2022-11-25T05:47:37.674Z,49.17
2022-11-25T05:50:04.538Z,54.80
2022-11-25T05:52:30.951Z,59.83
2022-11-25T05:54:57.694Z,60.75
2022-11-25T05:57:24.196Z,69.03
2022-11-25T05:59:50.657Z,65.65
2022-11-25T06:02:17.140Z,66.20
2022-11-25T06:04:43.662Z,74.53
2022-11-25T06:07:10.239Z,60.58
2022-11-25T06:09:36.716Z,59.83
2022-11-25T06:12:03.953Z,61.58
2022-11-25T06:14:32.108Z,66.53
2022-11-25T06:16:58.598Z,60.80
2022-11-25T06:19:25.133Z,66.72
2022-11-25T06:21:51.657Z,63.80
2022-11-25T06:24:18.275Z,59.13
2022-11-25T06:26:44.779Z,67.05
2022-11-25T06:29:11.496Z,60.58
2022-11-25T06:31:38.027Z,61.60
2022-11-25T06:34:06.535Z,55.78
2022-11-25T06:36:33.214Z,62.53
2022-11-25T06:38:59.648Z,70.45
2022-11-25T06:41:26.494Z,71.57
2022-11-25T06:43:53.168Z,74.68
2022-11-25T06:46:24.974Z,69.15
2022-11-25T06:48:53.444Z,67.05
2022-11-25T06:51:20.149Z,70.53
2022-11-25T06:53:46.680Z,71.10
2022-11-25T06:56:15.863Z,65.50
2022-11-25T06:58:43.993Z,63.72
2022-11-25T07:01:28.636Z,65.18
2022-11-25T07:03:59.756Z,70.05
2022-11-25T07:06:27.411Z,70.30
2022-11-25T07:08:54.361Z,68.13
2022-11-25T07:11:24.671Z,67.70
2022-11-25T07:13:56.842Z,64.85
2022-11-25T07:16:23.442Z,69.15
2022-11-25T07:18:50.047Z,69.80
2022-11-25T07:21:19.408Z,79.97
2022-11-25T07:23:47.155Z,80.80
2022-11-25T07:26:21.639Z,72.90
2022-11-25T07:28:49.412Z,80.22
2022-11-25T07:31:28.694Z,71.78
2022-11-25T07:34:03.921Z,76.20
2022-11-25T07:36:31.907Z,60.33
2022-11-25T07:39:00.471Z,70.65
2022-11-25T07:41:28.366Z,76.65
2022-11-25T07:43:59.157Z,69.35
2022-11-25T07:46:31.330Z,48.90
2022-11-25T07:49:02.556Z,63.75
2022-11-25T07:51:32.561Z,60.17
2022-11-25T07:54:01.270Z,63.33
2022-11-25T07:56:28.723Z,60.85
2022-11-25T07:58:56.843Z,66.05
2022-11-25T08:01:23.572Z,57.20
2022-11-25T08:03:51.328Z,53.72
2022-11-25T08:06:25.253Z,67.05
2022-11-25T08:08:54.671Z,66.00
2022-11-25T08:11:27.187Z,65.68
2022-11-25T08:13:54.492Z,55.22
2022-11-25T08:16:23.902Z,61.58
2022-11-25T08:18:50.747Z,63.60
2022-11-25T08:21:18.045Z,59.67
2022-11-25T08:23:47.961Z,58.30
2022-11-25T08:26:18.104Z,57.05
2022-11-25T08:28:45.465Z,58.28
2022-11-25T08:31:19.229Z,60.80
2022-11-25T08:33:46.887Z,59.03
2022-11-25T08:36:14.211Z,54.65
2022-11-25T08:38:42.504Z,62.20
2022-11-25T08:41:11.974Z,51.15
2022-11-25T08:43:39.567Z,50.30
2022-11-25T08:46:11.612Z,48.00
2022-11-25T08:48:38.993Z,52.15
2022-11-25T08:51:20.746Z,49.17
2022-11-25T08:56:15.138Z,50.20
2022-11-25T08:58:42.194Z,56.35
2022-11-25T09:01:10.815Z,55.45
2022-11-25T09:03:43.577Z,53.83
2022-11-25T09:06:11.174Z,56.28
2022-11-25T09:08:40.073Z,58.17
2022-11-25T09:11:07.866Z,51.03
2022-11-25T09:13:38.026Z,49.50
2022-11-25T09:16:05.632Z,63.50
2022-11-25T09:18:32.688Z,48.17
2022-11-25T09:20:59.788Z,49.28
2022-11-25T09:23:27.193Z,49.33
2022-11-25T09:25:58.037Z,44.80
2022-11-25T09:28:26.813Z,47.15
2022-11-25T09:30:53.558Z,45.22
2022-11-25T09:33:20.429Z,44.10
2022-11-25T09:35:47.491Z,41.03
2022-11-25T09:38:14.299Z,35.15
2022-11-25T09:40:51.152Z,40.92
2022-11-25T09:44:12.047Z,41.53
2022-11-25T09:47:00.390Z,30.95
2022-11-25T09:49:30.815Z,28.73
2022-11-25T09:52:37.148Z,29.52
2022-11-25T09:55:26.585Z,36.38
2022-11-25T09:58:00.027Z,29.23
2022-11-25T10:00:37.633Z,30.88
2022-11-25T10:03:15.335Z,26.15
2022-11-25T10:05:52.851Z,23.98
2022-11-25T10:08:25.257Z,29.15
2022-11-25T10:11:22.862Z,28.70
2022-11-25T10:14:46.273Z,26.30
2022-11-25T10:17:25.429Z,24.30
2022-11-25T10:20:04.900Z,23.67
2022-11-25T10:22:34.894Z,28.10
2022-11-25T10:25:23.782Z,25.92
2022-11-25T10:27:55.790Z,28.95
2022-11-25T10:30:33.091Z,23.80
2022-11-25T10:33:22.656Z,25.60
2022-11-25T10:36:22.120Z,23.75
2022-11-25T10:39:13.624Z,28.38
2022-11-25T10:41:55.173Z,43.83
2022-11-25T10:44:37.707Z,29.50
2022-11-25T10:47:43.301Z,29.00
2022-11-25T10:50:59.115Z,27.42
2022-11-25T10:53:30.807Z,30.02
2022-11-25T10:58:49.540Z,25.05
2022-11-25T11:01:25.856Z,30.17
2022-11-25T11:04:19.071Z,28.48
2022-11-25T11:06:48.413Z,25.92
2022-11-25T11:09:34.500Z,29.40
2022-11-25T11:12:15.512Z,27.98
2022-11-25T11:14:42.069Z,24.17
2022-11-25T11:17:35.999Z,25.83
2022-11-25T11:20:09.629Z,30.70
2022-11-25T11:22:47.443Z,29.42
2022-11-25T11:25:27.775Z,31.73
2022-11-25T11:27:55.001Z,26.10
2022-11-25T11:30:26.640Z,26.38
2022-11-25T11:35:50.925Z,23.77
2022-11-25T11:38:40.690Z,22.90
2022-11-25T11:41:53.854Z,28.38
2022-11-25T11:44:54.746Z,25.77
2022-11-25T11:47:43.811Z,28.63
2022-11-25T11:50:25.032Z,39.30
2022-11-25T11:53:47.218Z,28.17
2022-11-25T12:00:09.595Z,31.35
2022-11-25T12:02:59.207Z,29.30
2022-11-25T12:05:37.296Z,24.45
2022-11-25T12:08:13.672Z,20.40
2022-11-25T12:10:45.274Z,24.45
2022-11-25T12:13:32.933Z,26.05
2022-11-25T12:16:16.301Z,27.02
2022-11-25T12:19:04.165Z,33.35
2022-11-25T12:21:36.310Z,36.80
2022-11-25T12:24:17.334Z,32.97
2022-11-25T12:27:03.745Z,43.50
2022-11-25T12:30:19.118Z,41.83
2022-11-25T12:33:34.893Z,42.17
2022-11-25T12:36:56.843Z,51.25
2022-11-25T12:39:45.725Z,49.25
2022-11-25T12:42:32.840Z,47.08
2022-11-25T12:45:18.404Z,55.72
2022-11-25T12:47:45.448Z,46.63
2022-11-25T12:50:18.948Z,54.97
2022-11-25T12:53:00.535Z,56.72
2022-11-25T12:55:30.834Z,42.63
2022-11-25T13:07:54.286Z,44.38
2022-11-25T13:19:23.340Z,40.03
2022-11-25T13:30:37.730Z,39.03
2022-11-25T13:36:23.100Z,46.20
2022-11-25T13:38:56.696Z,46.75
2022-11-25T13:41:47.483Z,43.15
2022-11-25T13:44:49.025Z,46.97
2022-11-25T13:47:40.771Z,45.17
2022-11-25T13:51:10.774Z,41.95
2022-11-25T13:53:53.036Z,48.55
2022-11-25T13:56:32.525Z,47.13
2022-11-25T13:59:44.323Z,53.50
2022-11-25T14:02:58.743Z,55.95
2022-11-25T14:08:37.851Z,51.80
2022-11-25T14:14:01.211Z,54.35
2022-11-25T14:43:02.365Z,61.53
2022-11-25T16:12:25.751Z,74.37
2022-11-25T16:37:24.531Z,67.57
2022-11-25T16:39:57.728Z,72.40
2022-11-25T16:42:34.158Z,61.45
2022-11-25T16:47:55.534Z,76.18
2022-11-25T16:58:44.204Z,59.78
2022-11-25T17:07:30.671Z,62.03
2022-11-25T17:18:06.896Z,69.95
2022-11-25T17:32:13.527Z,67.07
2022-11-25T17:37:24.047Z,59.25
2022-11-25T17:39:54.434Z,66.18
2022-11-25T17:42:28.612Z,60.63
2022-11-25T17:44:55.844Z,52.95
2022-11-25T17:47:22.560Z,60.20
2022-11-25T17:49:49.691Z,50.13
2022-11-25T17:52:16.968Z,49.75
2022-11-25T17:54:43.666Z,50.10
2022-11-25T17:57:18.960Z,55.65
2022-11-25T17:59:45.624Z,57.20
2022-11-25T18:02:21.500Z,54.25
2022-11-25T18:04:50.546Z,56.30
2022-11-25T18:07:17.858Z,52.22
2022-11-25T18:09:45.664Z,58.25
2022-11-25T18:12:30.942Z,51.03
2022-11-25T18:14:57.877Z,49.50
2022-11-25T18:17:24.849Z,52.38
2022-11-25T18:19:54.866Z,53.40
2022-11-25T18:22:24.595Z,51.13
2022-11-25T18:24:52.480Z,52.85
2022-11-25T18:27:29.908Z,54.35
2022-11-25T18:29:57.382Z,57.88
2022-11-25T18:32:25.745Z,57.45
2022-11-25T18:34:52.652Z,55.45
2022-11-25T20:42:22.368Z,38.25
2022-11-25T20:44:54.695Z,45.60
2022-11-25T20:47:26.082Z,40.05
2022-11-25T21:35:40.760Z,36.10
2022-11-25T21:38:14.964Z,36.63
2022-11-25T21:51:27.505Z,34.47
2022-11-25T21:53:54.555Z,31.50
2022-11-25T22:04:55.452Z,32.22
2022-11-25T22:10:12.054Z,30.08
2022-11-25T22:12:41.684Z,30.60
2022-11-25T22:15:20.852Z,39.88
2022-11-25T22:20:34.325Z,33.22
2022-11-25T22:23:01.730Z,36.03
2022-11-25T22:25:31.191Z,31.25
2022-11-25T22:27:57.705Z,34.25
2022-11-25T22:33:03.109Z,32.63
2022-11-25T22:35:29.759Z,35.13
2022-11-25T22:37:56.258Z,35.45
2022-11-25T22:40:23.966Z,30.92
2022-11-25T22:42:52.049Z,30.98
2022-11-25T22:45:32.966Z,30.70
2022-11-25T22:48:04.649Z,32.05
2022-11-25T22:53:00.250Z,26.50
2022-11-25T22:55:29.851Z,33.20
2022-11-25T22:57:58.703Z,37.97
2022-11-25T23:00:28.247Z,35.28
2022-11-25T23:02:56.788Z,40.47
2022-11-25T23:05:34.745Z,34.28
2022-11-25T23:08:09.158Z,37.67
2022-11-25T23:10:35.645Z,42.90
2022-11-25T23:13:02.069Z,41.25
2022-11-25T23:15:29.454Z,39.22
2022-11-25T23:17:58.379Z,45.90
2022-11-25T23:20:30.485Z,45.67
2022-11-25T23:22:57.866Z,46.97
2022-11-25T23:25:24.901Z,56.55
2022-11-25T23:27:51.352Z,49.60
2022-11-25T23:30:22.899Z,57.03
2022-11-25T23:32:51.478Z,50.50
2022-11-25T23:35:21.645Z,64.05
2022-11-25T23:37:55.021Z,53.25
2022-11-25T23:40:24.018Z,60.40
2022-11-25T23:42:52.490Z,55.13
2022-11-25T23:45:21.343Z,79.43
2022-11-25T23:47:49.797Z,59.13
2022-11-25T23:50:32.407Z,72.32
2022-11-25T23:53:07.657Z,62.97
2022-11-25T23:55:37.186Z,59.17
